Time;durP1;ratioP1;P1;durP2;ratioP2;P2;SDS_P1;SDS_P2;PMS_P1;PMS_P2;Temp;Humidity;BMP_temperature;BMP_pressure;BME280_temperature;BME280_humidity;BME280_pressure;Samples;Min_cycle;Max_cycle;Signal;HPM_P1;HPM_P2
2022/10/23 00:01:01;;;;;;;0.70;0.70;;;;;;;;;;1775017;80;26808;-43
2022/10/23 00:03:28;;;;;;;0.80;0.80;;;;;;;;;;1766271;80;26437;-44
2022/10/23 00:05:55;;;;;;;0.80;0.78;;;;;;;;;;1766050;80;26299;-43
2022/10/23 00:08:23;;;;;;;0.80;0.80;;;;;;;;;;1766430;79;26289;-43
2022/10/23 00:10:50;;;;;;;0.80;0.80;;;;;;;;;;1762005;80;26401;-44
2022/10/23 00:13:17;;;;;;;0.70;0.70;;;;;;;;;;1766467;80;26285;-46
2022/10/23 00:15:44;;;;;;;0.90;0.90;;;;;;;;;;1781617;80;26319;-48
2022/10/23 00:18:12;;;;;;;0.80;0.80;;;;;;;;;;1775112;80;26305;-46
2022/10/23 00:20:39;;;;;;;0.70;0.70;;;;;;;;;;1763346;79;26266;-49
2022/10/23 00:23:06;;;;;;;0.75;0.75;;;;;;;;;;1766400;80;26330;-49
2022/10/23 00:25:33;;;;;;;0.72;0.72;;;;;;;;;;1767411;81;26352;-43
2022/10/23 00:28:01;;;;;;;0.70;0.70;;;;;;;;;;1766200;79;26337;-46
2022/10/23 00:30:28;;;;;;;0.90;0.90;;;;;;;;;;1761871;81;26222;-47
2022/10/23 00:32:55;;;;;;;0.70;0.70;;;;;;;;;;1766101;80;26348;-42
2022/10/23 00:35:22;;;;;;;0.80;0.80;;;;;;;;;;1766597;80;26298;-43
2022/10/23 00:37:50;;;;;;;0.70;0.70;;;;;;;;;;1766249;80;26235;-48
2022/10/23 00:40:17;;;;;;;0.90;0.90;;;;;;;;;;1766756;81;26297;-42
2022/10/23 00:42:44;;;;;;;0.80;0.80;;;;;;;;;;1755526;80;26284;-44
2022/10/23 00:45:13;;;;;;;0.80;0.80;;;;;;;;;;1766720;79;26236;-43
2022/10/23 00:47:41;;;;;;;0.80;0.80;;;;;;;;;;1766029;79;26388;-52
2022/10/23 00:50:09;;;;;;;0.70;0.70;;;;;;;;;;1798353;78;26746;-46
2022/10/23 00:52:38;;;;;;;0.90;0.90;;;;;;;;;;1808234;78;26332;-47
2022/10/23 00:55:05;;;;;;;0.98;0.98;;;;;;;;;;1805974;77;26328;-45
2022/10/23 00:57:33;;;;;;;0.70;0.70;;;;;;;;;;1804256;78;26719;-44
2022/10/23 01:00:00;;;;;;;0.70;0.70;;;;;;;;;;1803920;78;26285;-43
2022/10/23 01:02:27;;;;;;;0.80;0.80;;;;;;;;;;1803798;78;26285;-43
2022/10/23 01:04:54;;;;;;;0.80;0.80;;;;;;;;;;1802820;78;26265;-42
2022/10/23 01:07:29;;;;;;;0.80;0.80;;;;;;;;;;1803912;78;26262;-47
2022/10/23 01:10:07;;;;;;;0.70;0.70;;;;;;;;;;1803938;78;26288;-45
2022/10/23 01:12:36;;;;;;;0.80;0.80;;;;;;;;;;1803254;79;26363;-46
2022/10/23 01:15:17;;;;;;;0.82;0.82;;;;;;;;;;1806550;78;26500;-43
2022/10/23 01:17:46;;;;;;;0.80;0.80;;;;;;;;;;1808568;78;26761;-47
2022/10/23 01:20:30;;;;;;;0.80;0.80;;;;;;;;;;1803488;78;26699;-43
2022/10/23 01:23:02;;;;;;;0.93;0.93;;;;;;;;;;1796221;78;26827;-42
2022/10/23 01:25:36;;;;;;;0.80;0.80;;;;;;;;;;1799662;78;26324;-42
2022/10/23 01:28:05;;;;;;;1.00;1.00;;;;;;;;;;1800439;78;26573;-42
2022/10/23 01:30:33;;;;;;;0.80;0.80;;;;;;;;;;1803662;78;26255;-45
2022/10/23 01:33:02;;;;;;;0.80;0.80;;;;;;;;;;1803937;78;26335;-42
2022/10/23 01:35:30;;;;;;;0.80;0.80;;;;;;;;;;1803642;78;26281;-43
2022/10/23 01:38:02;;;;;;;0.90;0.90;;;;;;;;;;1802657;78;26293;-42
2022/10/23 01:40:34;;;;;;;0.85;0.85;;;;;;;;;;1803478;78;26301;-45
2022/10/23 01:43:03;;;;;;;0.90;0.90;;;;;;;;;;1803992;78;26270;-43
2022/10/23 01:45:32;;;;;;;0.80;0.80;;;;;;;;;;1803879;78;26329;-42
2022/10/23 01:48:00;;;;;;;0.90;0.90;;;;;;;;;;1801408;78;26273;-42
2022/10/23 01:50:28;;;;;;;0.80;0.80;;;;;;;;;;1787823;79;26349;-42
2022/10/23 01:52:55;;;;;;;1.00;1.00;;;;;;;;;;1783660;79;26310;-45
2022/10/23 01:55:23;;;;;;;0.90;0.90;;;;;;;;;;1781990;79;26737;-42
2022/10/23 01:57:51;;;;;;;0.70;0.70;;;;;;;;;;1790953;79;26300;-51
2022/10/23 02:00:19;;;;;;;0.98;0.98;;;;;;;;;;1785585;79;26231;-42
2022/10/23 02:02:47;;;;;;;0.80;0.80;;;;;;;;;;1783952;79;26310;-42
2022/10/23 02:05:16;;;;;;;0.90;0.90;;;;;;;;;;1783954;79;26303;-48
2022/10/23 02:07:44;;;;;;;0.80;0.80;;;;;;;;;;1783820;79;26285;-45
2022/10/23 02:10:12;;;;;;;1.10;1.00;;;;;;;;;;1782997;79;26754;-43
2022/10/23 02:12:44;;;;;;;0.90;0.90;;;;;;;;;;1791925;79;26286;-43
2022/10/23 02:15:16;;;;;;;1.00;1.00;;;;;;;;;;1802901;79;26272;-43
2022/10/23 02:17:50;;;;;;;0.88;0.88;;;;;;;;;;1799931;79;26290;-45
2022/10/23 02:20:22;;;;;;;0.85;0.85;;;;;;;;;;1791486;79;26188;-46
2022/10/23 02:22:51;;;;;;;0.82;0.82;;;;;;;;;;1773016;79;26230;-52
2022/10/23 02:25:19;;;;;;;0.98;0.98;;;;;;;;;;1776762;78;26227;-58
2022/10/23 02:27:48;;;;;;;0.98;0.98;;;;;;;;;;1782990;79;26301;-45
2022/10/23 02:30:17;;;;;;;0.88;0.88;;;;;;;;;;1783196;79;26371;-50
2022/10/23 02:32:46;;;;;;;0.80;0.80;;;;;;;;;;1784738;79;26302;-47
2022/10/23 02:35:13;;;;;;;0.90;0.90;;;;;;;;;;1782314;79;26282;-44
2022/10/23 02:37:40;;;;;;;0.80;0.80;;;;;;;;;;1781924;79;26301;-45
2022/10/23 02:40:08;;;;;;;0.90;0.90;;;;;;;;;;1780310;78;26235;-44
2022/10/23 02:42:37;;;;;;;0.90;0.90;;;;;;;;;;1783217;79;26874;-48
2022/10/23 02:45:06;;;;;;;0.70;0.70;;;;;;;;;;1784015;79;26677;-45
2022/10/23 02:47:51;;;;;;;1.00;1.00;;;;;;;;;;1793231;79;26706;-44
2022/10/23 02:50:23;;;;;;;1.00;1.00;;;;;;;;;;1791728;79;26312;-43
2022/10/23 02:52:55;;;;;;;0.90;0.90;;;;;;;;;;1804133;79;26317;-43
2022/10/23 02:55:24;;;;;;;0.90;0.90;;;;;;;;;;1796336;79;26216;-44
2022/10/23 02:57:52;;;;;;;0.88;0.88;;;;;;;;;;1802388;79;26291;-42
2022/10/23 03:00:20;;;;;;;0.85;0.85;;;;;;;;;;1803964;78;26243;-52
2022/10/23 03:02:56;;;;;;;1.00;1.00;;;;;;;;;;1783361;78;26688;-46
2022/10/23 03:05:25;;;;;;;0.80;0.80;;;;;;;;;;1781417;79;26679;-44
2022/10/23 03:07:52;;;;;;;0.95;0.95;;;;;;;;;;1782770;79;26337;-49
2022/10/23 03:10:19;;;;;;;0.90;0.90;;;;;;;;;;1783637;78;26358;-45
2022/10/23 03:12:47;;;;;;;0.98;0.98;;;;;;;;;;1783561;79;26805;-43
2022/10/23 03:15:15;;;;;;;0.98;0.98;;;;;;;;;;1783441;79;26263;-48
2022/10/23 03:17:43;;;;;;;0.90;0.90;;;;;;;;;;1783832;78;26348;-46
2022/10/23 03:20:10;;;;;;;1.10;0.90;;;;;;;;;;1787278;79;26224;-48
2022/10/23 03:22:38;;;;;;;1.00;1.00;;;;;;;;;;1786929;79;26196;-47
2022/10/23 03:25:06;;;;;;;0.95;0.95;;;;;;;;;;1783481;79;26281;-46
2022/10/23 03:27:33;;;;;;;0.88;0.88;;;;;;;;;;1780414;78;26729;-47
2022/10/23 03:30:01;;;;;;;1.35;1.00;;;;;;;;;;1783846;80;26236;-48
2022/10/23 03:32:28;;;;;;;0.90;0.90;;;;;;;;;;1783686;79;26302;-43
2022/10/23 03:34:56;;;;;;;1.00;1.00;;;;;;;;;;1783566;79;26325;-41
2022/10/23 03:37:23;;;;;;;1.00;1.00;;;;;;;;;;1783308;78;26254;-43
2022/10/23 03:39:50;;;;;;;0.95;0.95;;;;;;;;;;1783617;79;26294;-43
2022/10/23 03:42:17;;;;;;;0.90;0.90;;;;;;;;;;1783516;79;26235;-43
2022/10/23 03:44:45;;;;;;;0.80;0.80;;;;;;;;;;1783235;79;26298;-47
2022/10/23 03:47:12;;;;;;;1.00;1.00;;;;;;;;;;1783480;78;26289;-63
2022/10/23 03:49:39;;;;;;;0.90;0.90;;;;;;;;;;1788023;79;26261;-43
2022/10/23 03:52:07;;;;;;;0.90;0.90;;;;;;;;;;1799329;78;26343;-43
2022/10/23 03:54:35;;;;;;;0.90;0.90;;;;;;;;;;1796905;78;27373;-42
2022/10/23 03:57:02;;;;;;;0.98;0.98;;;;;;;;;;1795109;78;26227;-43
2022/10/23 03:59:30;;;;;;;0.85;0.85;;;;;;;;;;1794580;78;26238;-47
2022/10/23 04:01:57;;;;;;;0.98;0.98;;;;;;;;;;1795221;78;26262;-44
2022/10/23 04:04:24;;;;;;;0.90;0.90;;;;;;;;;;1797920;78;26282;-44
2022/10/23 04:06:52;;;;;;;0.90;0.90;;;;;;;;;;1795705;78;26652;-47
2022/10/23 04:09:19;;;;;;;1.07;1.07;;;;;;;;;;1796654;78;26191;-45
2022/10/23 04:11:46;;;;;;;0.90;0.90;;;;;;;;;;1800241;78;26268;-45
2022/10/23 04:14:14;;;;;;;0.95;0.95;;;;;;;;;;1799655;78;26235;-42
2022/10/23 04:16:41;;;;;;;1.00;1.00;;;;;;;;;;1795312;78;26848;-51
2022/10/23 04:19:09;;;;;;;1.00;1.00;;;;;;;;;;1795479;78;27455;-45
2022/10/23 04:21:36;;;;;;;0.95;0.95;;;;;;;;;;1848923;77;26846;-49
2022/10/23 04:24:03;;;;;;;0.90;0.90;;;;;;;;;;1839693;76;26326;-45
2022/10/23 04:26:31;;;;;;;1.10;1.10;;;;;;;;;;1855462;77;26683;-43
2022/10/23 04:28:58;;;;;;;0.98;0.98;;;;;;;;;;1826791;77;26327;-47
2022/10/23 04:31:25;;;;;;;0.90;0.90;;;;;;;;;;1838841;77;26272;-45
2022/10/23 04:33:52;;;;;;;0.95;0.95;;;;;;;;;;1834217;77;26319;-43
2022/10/23 04:36:20;;;;;;;1.00;1.00;;;;;;;;;;1834593;77;26200;-45
2022/10/23 04:38:47;;;;;;;0.93;0.93;;;;;;;;;;1835444;76;26376;-47
2022/10/23 04:41:14;;;;;;;0.98;0.98;;;;;;;;;;1833087;77;26267;-45
2022/10/23 04:43:41;;;;;;;0.80;0.80;;;;;;;;;;1832997;77;26669;-44
2022/10/23 04:46:09;;;;;;;1.10;1.10;;;;;;;;;;1832068;77;26832;-46
2022/10/23 04:48:36;;;;;;;1.00;0.90;;;;;;;;;;1831972;76;26732;-46
2022/10/23 04:51:05;;;;;;;1.02;1.02;;;;;;;;;;1839927;76;26717;-42
2022/10/23 04:53:32;;;;;;;1.42;0.90;;;;;;;;;;1847268;76;26859;-42
2022/10/23 04:56:00;;;;;;;1.90;1.00;;;;;;;;;;1849535;76;26212;-42
2022/10/23 04:58:28;;;;;;;1.05;1.05;;;;;;;;;;1849074;76;26223;-43
2022/10/23 05:00:56;;;;;;;1.00;1.00;;;;;;;;;;1849044;76;26164;-45
2022/10/23 05:03:24;;;;;;;0.90;0.90;;;;;;;;;;1849229;77;26212;-46
2022/10/23 05:05:55;;;;;;;0.98;0.98;;;;;;;;;;1848693;76;26263;-46
2022/10/23 05:08:23;;;;;;;1.25;1.17;;;;;;;;;;1847268;76;26208;-44
2022/10/23 05:10:51;;;;;;;1.10;1.10;;;;;;;;;;1856795;76;26221;-43
2022/10/23 05:13:18;;;;;;;1.42;1.17;;;;;;;;;;1863944;76;26858;-50
2022/10/23 05:15:47;;;;;;;1.10;1.10;;;;;;;;;;1858077;76;26149;-44
2022/10/23 05:18:25;;;;;;;1.12;1.12;;;;;;;;;;1862094;76;26284;-44
2022/10/23 05:20:54;;;;;;;0.90;0.90;;;;;;;;;;1871671;76;26218;-48
2022/10/23 05:23:22;;;;;;;1.02;1.02;;;;;;;;;;1862018;76;26269;-48
2022/10/23 05:25:50;;;;;;;0.95;0.95;;;;;;;;;;1862422;76;26807;-44
2022/10/23 05:28:17;;;;;;;1.10;1.10;;;;;;;;;;1857155;76;26707;-43
2022/10/23 05:30:44;;;;;;;1.00;1.00;;;;;;;;;;1863994;76;26251;-59
2022/10/23 05:33:12;;;;;;;1.12;1.12;;;;;;;;;;1849268;76;26342;-45
2022/10/23 05:35:41;;;;;;;1.15;0.98;;;;;;;;;;1864401;76;26228;-57
2022/10/23 05:38:08;;;;;;;1.00;1.00;;;;;;;;;;1856653;76;26795;-52
2022/10/23 05:40:36;;;;;;;1.65;1.00;;;;;;;;;;1864888;76;26164;-50
2022/10/23 05:43:03;;;;;;;1.00;1.00;;;;;;;;;;1860248;76;26215;-46
2022/10/23 05:45:30;;;;;;;1.00;1.00;;;;;;;;;;1865741;76;26214;-43
2022/10/23 05:47:58;;;;;;;1.00;1.00;;;;;;;;;;1863952;76;26581;-45
2022/10/23 05:50:25;;;;;;;1.00;1.00;;;;;;;;;;1858412;76;27424;-44
2022/10/23 05:52:52;;;;;;;0.90;0.90;;;;;;;;;;1822662;77;26359;-50
2022/10/23 05:55:19;;;;;;;1.05;1.00;;;;;;;;;;1816476;78;26338;-46
2022/10/23 05:57:47;;;;;;;1.10;1.10;;;;;;;;;;1820225;78;26359;-43
2022/10/23 06:00:14;;;;;;;1.05;1.05;;;;;;;;;;1820847;78;26880;-49
2022/10/23 06:02:41;;;;;;;1.00;1.00;;;;;;;;;;1815992;78;26685;-51
2022/10/23 06:05:09;;;;;;;1.00;0.95;;;;;;;;;;1822174;78;26265;-44
2022/10/23 06:07:36;;;;;;;1.05;1.05;;;;;;;;;;1820865;78;26268;-46
2022/10/23 06:10:04;;;;;;;1.50;1.05;;;;;;;;;;1815278;78;26280;-49
2022/10/23 06:12:32;;;;;;;1.00;1.00;;;;;;;;;;1818073;78;26289;-48
2022/10/23 06:14:59;;;;;;;1.00;1.00;;;;;;;;;;1816303;78;26819;-50
2022/10/23 06:17:27;;;;;;;0.95;0.95;;;;;;;;;;1813582;78;26331;-44
2022/10/23 06:19:59;;;;;;;1.20;1.00;;;;;;;;;;1810869;78;27710;-59
2022/10/23 06:22:23;;;;;;;1.65;0.98;;;;;;;;;;1803571;78;26326;-49
2022/10/23 06:24:51;;;;;;;1.00;1.00;;;;;;;;;;1811644;78;26365;-46
2022/10/23 06:27:18;;;;;;;0.80;0.80;;;;;;;;;;1815527;78;26397;-42
2022/10/23 06:29:45;;;;;;;1.02;0.90;;;;;;;;;;1814091;78;26269;-53
2022/10/23 06:32:13;;;;;;;0.90;0.90;;;;;;;;;;1821141;78;26229;-42
2022/10/23 06:34:40;;;;;;;1.17;1.10;;;;;;;;;;1811446;78;26237;-56
2022/10/23 06:37:08;;;;;;;1.00;1.00;;;;;;;;;;1815039;78;26729;-63
2022/10/23 06:39:35;;;;;;;1.00;1.00;;;;;;;;;;1813992;78;26808;-52
2022/10/23 06:42:03;;;;;;;0.93;0.93;;;;;;;;;;1807197;78;27545;-49
2022/10/23 06:44:30;;;;;;;0.90;0.90;;;;;;;;;;1811549;78;26253;-54
2022/10/23 06:46:59;;;;;;;1.50;1.40;;;;;;;;;;1813688;78;26276;-51
2022/10/23 06:49:26;;;;;;;0.90;0.90;;;;;;;;;;1821181;78;26832;-42
2022/10/23 06:51:54;;;;;;;0.98;0.98;;;;;;;;;;1818542;78;26642;-43
2022/10/23 06:54:21;;;;;;;0.90;0.90;;;;;;;;;;1809986;78;26300;-42
2022/10/23 06:56:48;;;;;;;1.00;1.00;;;;;;;;;;1817837;78;26260;-48
2022/10/23 06:59:16;;;;;;;1.00;1.00;;;;;;;;;;1817030;78;26444;-52
2022/10/23 07:01:43;;;;;;;0.90;0.90;;;;;;;;;;1800833;78;27398;-43
2022/10/23 07:04:13;;;;;;;0.90;0.90;;;;;;;;;;1800717;78;27025;-45
2022/10/23 07:06:40;;;;;;;0.90;0.90;;;;;;;;;;1777846;79;26291;-46
2022/10/23 07:09:08;;;;;;;0.90;0.90;;;;;;;;;;1797255;78;26353;-46
2022/10/23 07:11:36;;;;;;;0.90;0.90;;;;;;;;;;1794393;78;26311;-57
2022/10/23 07:14:04;;;;;;;1.00;1.00;;;;;;;;;;1800124;78;26362;-49
2022/10/23 07:16:31;;;;;;;1.10;1.10;;;;;;;;;;1817122;78;26657;-44
2022/10/23 07:19:00;;;;;;;3.17;1.20;;;;;;;;;;1796287;78;26284;-54
2022/10/23 07:21:28;;;;;;;11.18;1.80;;;;;;;;;;1802600;78;26358;-51
2022/10/23 07:23:57;;;;;;;2.60;1.40;;;;;;;;;;1799435;78;26526;-52
2022/10/23 07:26:24;;;;;;;3.55;1.45;;;;;;;;;;1803511;78;26271;-49
2022/10/23 07:28:53;;;;;;;5.87;1.42;;;;;;;;;;1794034;78;26313;-47
2022/10/23 07:31:21;;;;;;;4.53;1.40;;;;;;;;;;1797607;78;26307;-48
2022/10/23 07:33:49;;;;;;;6.30;1.50;;;;;;;;;;1802325;78;26299;-58
2022/10/23 07:36:16;;;;;;;5.85;1.32;;;;;;;;;;1801618;78;26307;-48
2022/10/23 07:38:44;;;;;;;4.53;1.50;;;;;;;;;;1802450;78;26322;-50
2022/10/23 07:41:12;;;;;;;4.40;1.65;;;;;;;;;;1799988;79;26665;-52
2022/10/23 07:43:39;;;;;;;4.00;1.45;;;;;;;;;;1800099;78;26275;-50
2022/10/23 07:46:08;;;;;;;1.85;1.60;;;;;;;;;;1801634;78;26713;-50
2022/10/23 07:48:37;;;;;;;9.30;1.77;;;;;;;;;;1802596;78;26772;-56
2022/10/23 07:51:07;;;;;;;2.10;1.90;;;;;;;;;;1798072;78;26858;-53
2022/10/23 07:53:34;;;;;;;2.62;1.90;;;;;;;;;;1812428;77;26339;-49
2022/10/23 07:56:03;;;;;;;3.02;1.85;;;;;;;;;;1800246;78;26318;-50
2022/10/23 07:58:30;;;;;;;4.72;1.65;;;;;;;;;;1807509;78;26750;-57
2022/10/23 08:00:59;;;;;;;2.55;1.80;;;;;;;;;;1814486;78;26295;-48
2022/10/23 08:03:28;;;;;;;1.70;1.60;;;;;;;;;;1817230;78;26365;-47
2022/10/23 08:05:55;;;;;;;1.90;1.50;;;;;;;;;;1810574;78;26378;-55
2022/10/23 08:08:23;;;;;;;2.25;1.47;;;;;;;;;;1810571;78;26275;-50
2022/10/23 08:10:51;;;;;;;1.70;1.60;;;;;;;;;;1822715;78;26616;-45
2022/10/23 08:13:21;;;;;;;1.82;1.50;;;;;;;;;;1811622;78;26287;-52
2022/10/23 08:15:50;;;;;;;3.35;1.40;;;;;;;;;;1799447;78;27510;-47
2022/10/23 08:18:17;;;;;;;1.60;1.50;;;;;;;;;;1804810;78;26327;-47
2022/10/23 08:20:46;;;;;;;2.20;1.32;;;;;;;;;;1812229;78;27541;-61
2022/10/23 08:23:15;;;;;;;2.12;1.40;;;;;;;;;;1805627;78;26378;-57
2022/10/23 08:25:43;;;;;;;4.12;1.85;;;;;;;;;;1805676;78;26375;-50
2022/10/23 08:28:10;;;;;;;1.67;1.57;;;;;;;;;;1806903;78;26737;-47
2022/10/23 08:30:37;;;;;;;2.20;1.40;;;;;;;;;;1802408;78;26838;-44
2022/10/23 08:33:05;;;;;;;2.47;1.20;;;;;;;;;;1822078;78;26265;-45
2022/10/23 08:35:37;;;;;;;3.45;1.60;;;;;;;;;;1797508;78;26279;-41
2022/10/23 08:38:05;;;;;;;1.20;1.20;;;;;;;;;;1796056;78;26303;-47
2022/10/23 08:40:34;;;;;;;1.75;1.50;;;;;;;;;;1797737;78;26574;-48
2022/10/23 08:43:03;;;;;;;1.62;1.37;;;;;;;;;;1800649;78;26864;-50
2022/10/23 08:45:34;;;;;;;6.62;1.60;;;;;;;;;;1804054;78;26335;-51
2022/10/23 08:48:03;;;;;;;2.35;1.40;;;;;;;;;;1799793;78;26791;-48
2022/10/23 08:50:41;;;;;;;3.02;1.50;;;;;;;;;;1801122;78;26721;-48
2022/10/23 08:53:13;;;;;;;4.78;1.70;;;;;;;;;;1804115;77;26335;-49
2022/10/23 08:55:42;;;;;;;1.82;1.60;;;;;;;;;;1834472;76;26341;-50
2022/10/23 08:58:14;;;;;;;3.17;1.70;;;;;;;;;;1833861;77;26283;-49
2022/10/23 09:00:43;;;;;;;2.85;1.40;;;;;;;;;;1836859;77;26235;-48
2022/10/23 09:03:11;;;;;;;4.40;1.70;;;;;;;;;;1845124;77;26203;-47
2022/10/23 09:05:52;;;;;;;3.20;1.70;;;;;;;;;;1848315;77;26790;-51
2022/10/23 09:08:27;;;;;;;2.92;1.40;;;;;;;;;;1817668;77;26967;-47
2022/10/23 09:11:11;;;;;;;2.40;1.27;;;;;;;;;;1833570;77;26287;-47
2022/10/23 09:13:40;;;;;;;5.22;1.70;;;;;;;;;;1834617;77;26327;-58
2022/10/23 09:16:15;;;;;;;4.22;1.42;;;;;;;;;;1836844;77;26214;-48
2022/10/23 09:18:43;;;;;;;1.72;1.57;;;;;;;;;;1839243;77;26220;-44
2022/10/23 09:21:10;;;;;;;2.92;1.80;;;;;;;;;;1828039;77;26230;-49
2022/10/23 09:23:38;;;;;;;1.45;1.37;;;;;;;;;;1840349;76;26249;-50
2022/10/23 09:26:16;;;;;;;2.77;1.50;;;;;;;;;;1840746;77;26186;-47
2022/10/23 09:28:44;;;;;;;2.65;1.60;;;;;;;;;;1825302;77;26283;-48
2022/10/23 09:31:12;;;;;;;1.52;1.42;;;;;;;;;;1837801;77;26257;-51
2022/10/23 09:33:40;;;;;;;2.85;2.15;;;;;;;;;;1838267;77;26244;-46
2022/10/23 09:36:09;;;;;;;1.98;1.60;;;;;;;;;;1840465;76;26212;-48
2022/10/23 09:38:38;;;;;;;1.50;1.50;;;;;;;;;;1839734;77;26296;-53
2022/10/23 09:41:07;;;;;;;3.37;1.55;;;;;;;;;;1834982;77;26220;-43
2022/10/23 09:43:35;;;;;;;1.60;1.50;;;;;;;;;;1834813;77;26314;-51
2022/10/23 09:46:04;;;;;;;1.47;1.47;;;;;;;;;;1837952;77;26266;-48
2022/10/23 09:48:32;;;;;;;1.50;1.50;;;;;;;;;;1840548;77;26720;-44
2022/10/23 09:51:01;;;;;;;1.87;1.40;;;;;;;;;;1836095;77;26402;-42
2022/10/23 09:53:38;;;;;;;1.57;1.47;;;;;;;;;;1836461;76;26777;-45
2022/10/23 09:56:24;;;;;;;1.47;1.47;;;;;;;;;;1824334;77;26771;-43
2022/10/23 09:58:53;;;;;;;1.30;1.30;;;;;;;;;;1810041;77;26314;-43
2022/10/23 10:01:24;;;;;;;1.35;1.30;;;;;;;;;;1822238;77;26074;-50
2022/10/23 10:03:52;;;;;;;1.50;1.40;;;;;;;;;;1819375;77;26321;-47
2022/10/23 10:06:21;;;;;;;1.22;1.22;;;;;;;;;;1821678;77;26196;-53
2022/10/23 10:08:49;;;;;;;1.40;1.30;;;;;;;;;;1819768;77;26271;-45
2022/10/23 10:11:21;;;;;;;1.70;1.60;;;;;;;;;;1830957;77;26746;-45
2022/10/23 10:13:59;;;;;;;1.47;1.37;;;;;;;;;;1832588;77;26310;-43
2022/10/23 10:16:30;;;;;;;1.22;1.22;;;;;;;;;;1834418;77;26741;-55
2022/10/23 10:19:17;;;;;;;1.62;1.52;;;;;;;;;;1843157;77;26260;-47
2022/10/23 10:21:55;;;;;;;1.85;1.42;;;;;;;;;;1823025;77;26325;-46
2022/10/23 10:24:27;;;;;;;1.25;1.25;;;;;;;;;;1828872;77;26240;-47
2022/10/23 10:26:56;;;;;;;2.27;1.40;;;;;;;;;;1837779;76;26216;-42
2022/10/23 10:29:29;;;;;;;1.27;1.27;;;;;;;;;;1822656;77;26344;-55
2022/10/23 10:31:55;;;;;;;1.15;1.15;;;;;;;;;;1814621;77;26335;-50
2022/10/23 10:34:30;;;;;;;1.20;1.20;;;;;;;;;;1825194;77;26372;-53
2022/10/23 10:36:58;;;;;;;1.20;1.20;;;;;;;;;;1791418;77;26324;-43
2022/10/23 10:39:38;;;;;;;1.20;1.20;;;;;;;;;;1824107;77;26274;-53
2022/10/23 10:42:19;;;;;;;1.22;1.12;;;;;;;;;;1822055;77;26287;-43
2022/10/23 10:44:47;;;;;;;1.15;1.15;;;;;;;;;;1838565;77;26689;-52
2022/10/23 10:47:16;;;;;;;1.10;1.10;;;;;;;;;;1839685;77;26268;-53
2022/10/23 10:49:45;;;;;;;1.10;1.10;;;;;;;;;;1821152;77;26318;-44
2022/10/23 10:52:14;;;;;;;1.10;1.10;;;;;;;;;;1838470;77;26343;-44
2022/10/23 10:54:55;;;;;;;1.10;1.10;;;;;;;;;;1827019;75;26308;-46
2022/10/23 10:57:24;;;;;;;1.00;1.00;;;;;;;;;;1811925;77;26791;-50
2022/10/23 10:59:52;;;;;;;1.02;1.02;;;;;;;;;;1805246;77;26754;-55
2022/10/23 11:02:21;;;;;;;1.00;1.00;;;;;;;;;;1810304;78;26771;-51
2022/10/23 11:04:53;;;;;;;1.00;1.00;;;;;;;;;;1802608;78;26361;-43
2022/10/23 11:07:22;;;;;;;1.00;1.00;;;;;;;;;;1803933;78;26334;-44
2022/10/23 11:09:49;;;;;;;1.00;1.00;;;;;;;;;;1805286;78;26280;-45
2022/10/23 11:12:21;;;;;;;1.10;1.10;;;;;;;;;;1809228;78;26284;-52
2022/10/23 11:14:49;;;;;;;0.93;0.93;;;;;;;;;;1814161;78;26397;-43
2022/10/23 11:17:23;;;;;;;1.10;1.10;;;;;;;;;;1803021;78;26256;-47
2022/10/23 11:19:54;;;;;;;1.00;1.00;;;;;;;;;;1809477;78;26280;-43
2022/10/23 11:22:23;;;;;;;1.10;1.10;;;;;;;;;;1798006;78;26334;-44
2022/10/23 11:24:52;;;;;;;1.07;1.07;;;;;;;;;;1802072;78;26212;-44
2022/10/23 11:27:37;;;;;;;1.15;1.15;;;;;;;;;;1803521;78;26263;-43
2022/10/23 11:30:23;;;;;;;0.95;0.95;;;;;;;;;;1802346;78;26327;-45
2022/10/23 11:32:52;;;;;;;1.20;1.20;;;;;;;;;;1802756;78;26701;-44
2022/10/23 11:35:30;;;;;;;0.98;0.98;;;;;;;;;;1789879;78;26276;-44
2022/10/23 11:38:02;;;;;;;0.93;0.93;;;;;;;;;;1796304;78;26277;-45
2022/10/23 11:40:29;;;;;;;0.90;0.90;;;;;;;;;;1796805;78;26322;-44
2022/10/23 11:42:56;;;;;;;1.15;1.15;;;;;;;;;;1801689;78;26260;-44
2022/10/23 11:45:28;;;;;;;0.90;0.90;;;;;;;;;;1808764;78;26832;-46
2022/10/23 11:47:59;;;;;;;0.90;0.90;;;;;;;;;;1810090;78;26735;-45
2022/10/23 11:50:28;;;;;;;1.00;1.00;;;;;;;;;;1791650;78;26277;-44
2022/10/23 11:53:00;;;;;;;0.90;0.90;;;;;;;;;;1815006;78;26204;-61
2022/10/23 11:55:29;;;;;;;1.00;1.00;;;;;;;;;;1813516;77;26263;-45
2022/10/23 11:58:14;;;;;;;1.12;1.12;;;;;;;;;;1851496;77;26240;-47
2022/10/23 12:00:43;;;;;;;1.05;1.05;;;;;;;;;;1839823;77;26227;-47
2022/10/23 12:03:15;;;;;;;0.93;0.93;;;;;;;;;;1835459;77;26231;-43
2022/10/23 12:05:44;;;;;;;1.00;1.00;;;;;;;;;;1834163;76;26232;-48
2022/10/23 12:08:19;;;;;;;0.90;0.90;;;;;;;;;;1855001;77;26228;-45
2022/10/23 12:10:54;;;;;;;1.07;1.07;;;;;;;;;;1826056;77;26308;-51
2022/10/23 12:13:27;;;;;;;1.07;1.07;;;;;;;;;;1830521;77;26278;-44
2022/10/23 12:15:55;;;;;;;0.93;0.93;;;;;;;;;;1835269;77;26622;-43
2022/10/23 12:18:22;;;;;;;0.98;0.98;;;;;;;;;;1849028;77;26186;-42
2022/10/23 12:20:51;;;;;;;0.80;0.80;;;;;;;;;;1860526;77;26292;-51
2022/10/23 12:23:38;;;;;;;0.90;0.90;;;;;;;;;;1835192;76;27391;-44
2022/10/23 12:26:10;;;;;;;0.90;0.90;;;;;;;;;;1835348;77;26280;-49
2022/10/23 12:28:44;;;;;;;0.90;0.90;;;;;;;;;;1835720;77;26686;-45
2022/10/23 12:31:29;;;;;;;0.90;0.90;;;;;;;;;;1835302;77;26159;-47
2022/10/23 12:34:10;;;;;;;0.80;0.80;;;;;;;;;;1835873;76;26279;-49
2022/10/23 12:36:51;;;;;;;0.80;0.80;;;;;;;;;;1835556;76;26319;-48
2022/10/23 12:39:29;;;;;;;0.70;0.70;;;;;;;;;;1828150;77;26269;-44
2022/10/23 12:41:56;;;;;;;0.88;0.88;;;;;;;;;;1839960;77;26263;-43
2022/10/23 12:44:24;;;;;;;0.75;0.75;;;;;;;;;;1835875;77;26239;-48
2022/10/23 12:46:56;;;;;;;0.90;0.90;;;;;;;;;;1842708;77;26259;-58
2022/10/23 12:49:25;;;;;;;0.90;0.90;;;;;;;;;;1827138;77;26315;-50
2022/10/23 12:51:57;;;;;;;1.20;0.75;;;;;;;;;;1845651;77;27482;-47
2022/10/23 12:54:25;;;;;;;0.80;0.80;;;;;;;;;;1831037;76;26232;-49
2022/10/23 12:56:52;;;;;;;0.85;0.85;;;;;;;;;;1810031;77;26315;-50
2022/10/23 12:59:21;;;;;;;0.78;0.78;;;;;;;;;;1798896;78;26397;-62
2022/10/23 13:01:49;;;;;;;1.02;0.90;;;;;;;;;;1793733;78;26263;-50
2022/10/23 13:04:17;;;;;;;0.95;0.80;;;;;;;;;;1788247;78;26371;-45
2022/10/23 13:06:45;;;;;;;0.93;0.90;;;;;;;;;;1799022;78;26372;-47
2022/10/23 13:09:23;;;;;;;0.85;0.85;;;;;;;;;;1796602;78;26276;-48
2022/10/23 13:11:51;;;;;;;0.80;0.80;;;;;;;;;;1803864;78;26792;-51
2022/10/23 13:14:36;;;;;;;2.90;0.90;;;;;;;;;;1795074;78;26366;-58
2022/10/23 13:17:05;;;;;;;1.30;0.88;;;;;;;;;;1794880;78;26326;-52
2022/10/23 13:19:32;;;;;;;1.90;0.80;;;;;;;;;;1785838;78;26675;-45
2022/10/23 13:22:00;;;;;;;0.80;0.80;;;;;;;;;;1798056;78;26394;-49
2022/10/23 13:24:28;;;;;;;3.37;0.98;;;;;;;;;;1809162;78;26279;-44
2022/10/23 13:26:56;;;;;;;0.80;0.80;;;;;;;;;;1796066;78;25741;-44
2022/10/23 13:29:28;;;;;;;1.32;1.12;;;;;;;;;;1798202;78;26260;-50
2022/10/23 13:31:55;;;;;;;0.80;0.80;;;;;;;;;;1792839;78;26950;-42
2022/10/23 13:34:24;;;;;;;2.25;0.72;;;;;;;;;;1801827;78;26303;-48
2022/10/23 13:36:55;;;;;;;0.70;0.70;;;;;;;;;;1800044;78;26349;-45
2022/10/23 13:39:24;;;;;;;1.17;0.80;;;;;;;;;;1799940;78;26227;-45
2022/10/23 13:41:52;;;;;;;1.60;0.70;;;;;;;;;;1802569;78;27362;-46
2022/10/23 13:44:21;;;;;;;0.80;0.80;;;;;;;;;;1795011;78;26338;-47
2022/10/23 13:46:48;;;;;;;0.60;0.60;;;;;;;;;;1787431;77;26695;-44
2022/10/23 13:49:15;;;;;;;4.47;1.17;;;;;;;;;;1798912;78;26715;-44
2022/10/23 13:51:46;;;;;;;0.70;0.70;;;;;;;;;;1781950;78;26329;-59
2022/10/23 13:54:15;;;;;;;0.85;0.85;;;;;;;;;;1787773;78;26863;-42
2022/10/23 13:56:42;;;;;;;0.60;0.60;;;;;;;;;;1820772;77;26226;-46
2022/10/23 13:59:10;;;;;;;1.25;0.60;;;;;;;;;;1844619;76;26207;-45
2022/10/23 14:01:37;;;;;;;0.70;0.70;;;;;;;;;;1849731;77;26323;-52
2022/10/23 14:04:05;;;;;;;1.55;0.90;;;;;;;;;;1851757;77;26216;-45
2022/10/23 14:06:33;;;;;;;0.68;0.68;;;;;;;;;;1841055;77;26443;-48
2022/10/23 14:09:00;;;;;;;0.93;0.70;;;;;;;;;;1848576;77;26677;-44
2022/10/23 14:11:28;;;;;;;0.60;0.60;;;;;;;;;;1861060;77;26660;-44
2022/10/23 14:13:55;;;;;;;0.70;0.70;;;;;;;;;;1845391;77;27487;-44
2022/10/23 14:16:22;;;;;;;0.70;0.70;;;;;;;;;;1843231;77;26201;-43
2022/10/23 14:18:49;;;;;;;1.07;0.95;;;;;;;;;;1845828;77;26191;-43
2022/10/23 14:21:18;;;;;;;1.80;0.90;;;;;;;;;;1849395;77;26155;-43
2022/10/23 14:23:46;;;;;;;1.75;1.10;;;;;;;;;;1848480;77;26262;-50
2022/10/23 14:26:15;;;;;;;1.40;0.85;;;;;;;;;;1845789;77;26840;-43
2022/10/23 14:28:43;;;;;;;0.80;0.80;;;;;;;;;;1843902;76;26226;-50
2022/10/23 14:31:12;;;;;;;1.17;1.05;;;;;;;;;;1849050;77;26184;-48
2022/10/23 14:33:39;;;;;;;1.10;1.00;;;;;;;;;;1853125;77;26290;-52
2022/10/23 14:36:07;;;;;;;1.12;1.07;;;;;;;;;;1853284;77;26785;-54
2022/10/23 14:38:34;;;;;;;3.60;0.85;;;;;;;;;;1847695;77;26190;-49
2022/10/23 14:41:02;;;;;;;0.90;0.90;;;;;;;;;;1849150;77;26315;-47
2022/10/23 14:43:29;;;;;;;0.95;0.95;;;;;;;;;;1848795;77;26174;-52
2022/10/23 14:45:56;;;;;;;4.00;0.90;;;;;;;;;;1851501;77;26151;-45
2022/10/23 14:48:23;;;;;;;0.98;0.90;;;;;;;;;;1859343;77;27070;-43
2022/10/23 14:50:51;;;;;;;1.12;0.93;;;;;;;;;;1851019;77;26743;-47
2022/10/23 14:53:18;;;;;;;2.58;0.90;;;;;;;;;;1851812;76;26230;-53
2022/10/23 14:55:45;;;;;;;3.00;1.05;;;;;;;;;;1849739;77;26784;-47